sensor_id;sensor_type;location;lat;lon;timestamp;P1;durP1;ratioP1;P2;durP2;ratioP2
22320;SDS011;11328;53.928;18.522;2024-02-14T00:01:12;28.83;;;12.93;;
22320;SDS011;11328;53.928;18.522;2024-02-14T00:03:46;26.90;;;13.82;;
22320;SDS011;11328;53.928;18.522;2024-02-14T00:06:14;26.52;;;14.38;;
22320;SDS011;11328;53.928;18.522;2024-02-14T00:08:41;25.23;;;13.45;;
22320;SDS011;11328;53.928;18.522;2024-02-14T00:11:08;26.48;;;13.82;;
22320;SDS011;11328;53.928;18.522;2024-02-14T00:13:35;26.90;;;13.88;;
22320;SDS011;11328;53.928;18.522;2024-02-14T00:16:02;26.70;;;14.05;;
22320;SDS011;11328;53.928;18.522;2024-02-14T00:18:29;24.35;;;14.15;;
22320;SDS011;11328;53.928;18.522;2024-02-14T00:20:57;25.63;;;14.43;;
22320;SDS011;11328;53.928;18.522;2024-02-14T00:23:24;31.17;;;14.27;;
22320;SDS011;11328;53.928;18.522;2024-02-14T00:25:51;25.92;;;14.10;;
22320;SDS011;11328;53.928;18.522;2024-02-14T00:28:18;30.85;;;14.95;;
22320;SDS011;11328;53.928;18.522;2024-02-14T00:30:45;23.80;;;13.95;;
22320;SDS011;11328;53.928;18.522;2024-02-14T00:33:12;27.15;;;14.18;;
22320;SDS011;11328;53.928;18.522;2024-02-14T00:35:40;28.45;;;14.27;;
22320;SDS011;11328;53.928;18.522;2024-02-14T00:38:07;26.25;;;14.65;;
22320;SDS011;11328;53.928;18.522;2024-02-14T00:40:34;28.63;;;14.35;;
22320;SDS011;11328;53.928;18.522;2024-02-14T00:43:01;32.80;;;14.35;;
22320;SDS011;11328;53.928;18.522;2024-02-14T00:45:28;31.27;;;14.70;;
22320;SDS011;11328;53.928;18.522;2024-02-14T00:47:55;32.72;;;15.32;;
22320;SDS011;11328;53.928;18.522;2024-02-14T00:50:23;26.65;;;14.82;;
22320;SDS011;11328;53.928;18.522;2024-02-14T00:52:50;25.02;;;14.50;;
22320;SDS011;11328;53.928;18.522;2024-02-14T00:55:17;29.15;;;15.00;;
22320;SDS011;11328;53.928;18.522;2024-02-14T00:57:44;29.40;;;14.30;;
22320;SDS011;11328;53.928;18.522;2024-02-14T01:00:11;21.40;;;12.65;;
22320;SDS011;11328;53.928;18.522;2024-02-14T01:02:38;26.48;;;14.35;;
22320;SDS011;11328;53.928;18.522;2024-02-14T01:05:05;25.02;;;13.30;;
22320;SDS011;11328;53.928;18.522;2024-02-14T01:07:33;23.30;;;13.70;;
22320;SDS011;11328;53.928;18.522;2024-02-14T01:10:00;22.75;;;13.15;;
22320;SDS011;11328;53.928;18.522;2024-02-14T01:12:27;26.80;;;14.35;;
22320;SDS011;11328;53.928;18.522;2024-02-14T01:14:55;24.15;;;13.88;;
22320;SDS011;11328;53.928;18.522;2024-02-14T01:17:22;27.90;;;14.45;;
22320;SDS011;11328;53.928;18.522;2024-02-14T01:19:51;26.30;;;13.85;;
22320;SDS011;11328;53.928;18.522;2024-02-14T01:22:18;26.80;;;14.00;;
22320;SDS011;11328;53.928;18.522;2024-02-14T01:24:45;29.05;;;14.10;;
22320;SDS011;11328;53.928;18.522;2024-02-14T01:27:12;27.38;;;14.80;;
22320;SDS011;11328;53.928;18.522;2024-02-14T01:29:39;26.83;;;14.70;;
22320;SDS011;11328;53.928;18.522;2024-02-14T01:32:06;30.85;;;14.30;;
22320;SDS011;11328;53.928;18.522;2024-02-14T01:34:33;24.88;;;14.52;;
22320;SDS011;11328;53.928;18.522;2024-02-14T01:37:00;28.10;;;14.90;;
22320;SDS011;11328;53.928;18.522;2024-02-14T01:39:27;31.45;;;14.80;;
22320;SDS011;11328;53.928;18.522;2024-02-14T01:41:54;28.63;;;15.23;;
22320;SDS011;11328;53.928;18.522;2024-02-14T01:44:21;30.33;;;14.93;;
22320;SDS011;11328;53.928;18.522;2024-02-14T01:46:49;30.55;;;14.60;;
22320;SDS011;11328;53.928;18.522;2024-02-14T01:49:17;28.33;;;14.68;;
22320;SDS011;11328;53.928;18.522;2024-02-14T01:51:44;26.70;;;14.63;;
22320;SDS011;11328;53.928;18.522;2024-02-14T01:54:13;31.00;;;14.98;;
22320;SDS011;11328;53.928;18.522;2024-02-14T01:56:43;29.00;;;14.93;;
22320;SDS011;11328;53.928;18.522;2024-02-14T01:59:11;28.70;;;14.68;;
22320;SDS011;11328;53.928;18.522;2024-02-14T02:01:39;25.15;;;14.70;;
22320;SDS011;11328;53.928;18.522;2024-02-14T02:04:07;26.23;;;14.07;;
22320;SDS011;11328;53.928;18.522;2024-02-14T02:06:35;29.35;;;15.20;;
22320;SDS011;11328;53.928;18.522;2024-02-14T02:09:02;28.58;;;14.32;;
22320;SDS011;11328;53.928;18.522;2024-02-14T02:11:29;29.15;;;14.65;;
22320;SDS011;11328;53.928;18.522;2024-02-14T02:13:57;26.70;;;14.93;;
22320;SDS011;11328;53.928;18.522;2024-02-14T02:16:24;28.50;;;14.63;;
22320;SDS011;11328;53.928;18.522;2024-02-14T02:18:51;25.02;;;14.18;;
22320;SDS011;11328;53.928;18.522;2024-02-14T02:21:19;30.60;;;14.63;;
22320;SDS011;11328;53.928;18.522;2024-02-14T02:23:49;28.88;;;14.85;;
22320;SDS011;11328;53.928;18.522;2024-02-14T02:26:17;32.28;;;15.05;;
22320;SDS011;11328;53.928;18.522;2024-02-14T02:28:44;30.60;;;15.20;;
22320;SDS011;11328;53.928;18.522;2024-02-14T02:31:11;28.38;;;15.20;;
22320;SDS011;11328;53.928;18.522;2024-02-14T02:33:38;28.55;;;15.10;;
22320;SDS011;11328;53.928;18.522;2024-02-14T02:36:05;26.08;;;14.88;;
22320;SDS011;11328;53.928;18.522;2024-02-14T02:38:34;32.53;;;15.57;;
22320;SDS011;11328;53.928;18.522;2024-02-14T02:41:03;30.02;;;15.10;;
22320;SDS011;11328;53.928;18.522;2024-02-14T02:43:33;29.40;;;15.57;;
22320;SDS011;11328;53.928;18.522;2024-02-14T02:46:00;31.52;;;15.75;;
22320;SDS011;11328;53.928;18.522;2024-02-14T02:48:28;27.90;;;14.98;;
22320;SDS011;11328;53.928;18.522;2024-02-14T02:50:55;30.13;;;14.68;;
22320;SDS011;11328;53.928;18.522;2024-02-14T02:53:22;33.70;;;15.45;;
22320;SDS011;11328;53.928;18.522;2024-02-14T02:55:50;31.40;;;15.20;;
22320;SDS011;11328;53.928;18.522;2024-02-14T02:58:18;27.50;;;16.05;;
22320;SDS011;11328;53.928;18.522;2024-02-14T03:00:47;32.13;;;16.27;;
22320;SDS011;11328;53.928;18.522;2024-02-14T03:03:15;27.95;;;15.63;;
22320;SDS011;11328;53.928;18.522;2024-02-14T03:05:42;30.63;;;15.40;;
22320;SDS011;11328;53.928;18.522;2024-02-14T03:08:12;31.60;;;16.02;;
22320;SDS011;11328;53.928;18.522;2024-02-14T03:10:42;32.75;;;16.45;;
22320;SDS011;11328;53.928;18.522;2024-02-14T03:13:12;33.75;;;16.52;;
22320;SDS011;11328;53.928;18.522;2024-02-14T03:15:44;30.35;;;16.75;;
22320;SDS011;11328;53.928;18.522;2024-02-14T03:18:12;29.80;;;16.42;;
22320;SDS011;11328;53.928;18.522;2024-02-14T03:20:40;31.42;;;16.50;;
22320;SDS011;11328;53.928;18.522;2024-02-14T03:23:07;33.17;;;17.65;;
22320;SDS011;11328;53.928;18.522;2024-02-14T03:25:34;32.63;;;17.05;;
22320;SDS011;11328;53.928;18.522;2024-02-14T03:28:03;33.13;;;17.42;;
22320;SDS011;11328;53.928;18.522;2024-02-14T03:30:35;32.85;;;17.35;;
22320;SDS011;11328;53.928;18.522;2024-02-14T03:33:02;34.03;;;16.63;;
22320;SDS011;11328;53.928;18.522;2024-02-14T03:35:30;31.25;;;15.95;;
22320;SDS011;11328;53.928;18.522;2024-02-14T03:37:59;28.30;;;16.45;;
22320;SDS011;11328;53.928;18.522;2024-02-14T03:40:28;31.17;;;16.65;;
22320;SDS011;11328;53.928;18.522;2024-02-14T03:42:56;30.08;;;16.02;;
22320;SDS011;11328;53.928;18.522;2024-02-14T03:45:23;37.20;;;16.08;;
22320;SDS011;11328;53.928;18.522;2024-02-14T03:47:50;37.35;;;16.25;;
22320;SDS011;11328;53.928;18.522;2024-02-14T03:50:18;38.03;;;17.05;;
22320;SDS011;11328;53.928;18.522;2024-02-14T03:52:44;30.75;;;15.68;;
22320;SDS011;11328;53.928;18.522;2024-02-14T03:55:12;28.48;;;16.27;;
22320;SDS011;11328;53.928;18.522;2024-02-14T03:57:40;30.60;;;16.30;;
22320;SDS011;11328;53.928;18.522;2024-02-14T04:00:08;31.48;;;17.60;;
22320;SDS011;11328;53.928;18.522;2024-02-14T04:02:39;31.67;;;17.02;;
22320;SDS011;11328;53.928;18.522;2024-02-14T04:05:07;31.77;;;17.17;;
22320;SDS011;11328;53.928;18.522;2024-02-14T04:07:35;34.17;;;17.27;;
22320;SDS011;11328;53.928;18.522;2024-02-14T04:10:03;32.88;;;17.08;;
22320;SDS011;11328;53.928;18.522;2024-02-14T04:12:31;34.35;;;16.75;;
22320;SDS011;11328;53.928;18.522;2024-02-14T04:14:58;30.80;;;16.33;;
22320;SDS011;11328;53.928;18.522;2024-02-14T04:17:26;31.65;;;16.05;;
22320;SDS011;11328;53.928;18.522;2024-02-14T04:19:53;33.00;;;17.05;;
22320;SDS011;11328;53.928;18.522;2024-02-14T04:22:20;31.52;;;17.38;;
22320;SDS011;11328;53.928;18.522;2024-02-14T04:24:47;32.83;;;17.40;;
22320;SDS011;11328;53.928;18.522;2024-02-14T04:27:14;35.83;;;17.25;;
22320;SDS011;11328;53.928;18.522;2024-02-14T04:29:44;34.33;;;16.88;;
22320;SDS011;11328;53.928;18.522;2024-02-14T04:32:15;33.50;;;17.20;;
22320;SDS011;11328;53.928;18.522;2024-02-14T04:34:43;33.95;;;16.40;;
22320;SDS011;11328;53.928;18.522;2024-02-14T04:37:11;27.80;;;15.80;;
22320;SDS011;11328;53.928;18.522;2024-02-14T04:39:40;29.25;;;16.95;;
22320;SDS011;11328;53.928;18.522;2024-02-14T04:42:08;31.48;;;16.98;;
22320;SDS011;11328;53.928;18.522;2024-02-14T04:44:35;31.42;;;16.55;;
22320;SDS011;11328;53.928;18.522;2024-02-14T04:47:03;32.63;;;16.95;;
22320;SDS011;11328;53.928;18.522;2024-02-14T04:49:30;30.13;;;16.48;;
22320;SDS011;11328;53.928;18.522;2024-02-14T04:51:57;32.42;;;17.48;;
22320;SDS011;11328;53.928;18.522;2024-02-14T04:54:25;28.98;;;16.88;;
22320;SDS011;11328;53.928;18.522;2024-02-14T04:56:53;31.80;;;16.58;;
22320;SDS011;11328;53.928;18.522;2024-02-14T04:59:25;28.88;;;16.67;;
22320;SDS011;11328;53.928;18.522;2024-02-14T05:01:52;29.33;;;16.60;;
22320;SDS011;11328;53.928;18.522;2024-02-14T05:04:20;31.77;;;17.58;;
22320;SDS011;11328;53.928;18.522;2024-02-14T05:06:49;31.48;;;16.33;;
22320;SDS011;11328;53.928;18.522;2024-02-14T05:09:20;32.08;;;16.80;;
22320;SDS011;11328;53.928;18.522;2024-02-14T05:11:47;32.65;;;17.88;;
22320;SDS011;11328;53.928;18.522;2024-02-14T05:14:14;28.35;;;16.65;;
22320;SDS011;11328;53.928;18.522;2024-02-14T05:16:42;35.28;;;18.20;;
22320;SDS011;11328;53.928;18.522;2024-02-14T05:19:09;32.80;;;17.73;;
22320;SDS011;11328;53.928;18.522;2024-02-14T05:21:37;30.58;;;17.20;;
22320;SDS011;11328;53.928;18.522;2024-02-14T05:24:04;30.85;;;16.33;;
22320;SDS011;11328;53.928;18.522;2024-02-14T05:26:33;31.17;;;16.67;;
22320;SDS011;11328;53.928;18.522;2024-02-14T05:29:00;36.00;;;17.10;;
22320;SDS011;11328;53.928;18.522;2024-02-14T05:31:32;31.92;;;17.33;;
22320;SDS011;11328;53.928;18.522;2024-02-14T05:34:11;33.40;;;16.17;;
22320;SDS011;11328;53.928;18.522;2024-02-14T05:36:38;33.85;;;17.15;;
22320;SDS011;11328;53.928;18.522;2024-02-14T05:39:05;33.72;;;16.83;;
22320;SDS011;11328;53.928;18.522;2024-02-14T05:41:34;29.65;;;17.13;;
22320;SDS011;11328;53.928;18.522;2024-02-14T05:44:02;30.35;;;16.90;;
22320;SDS011;11328;53.928;18.522;2024-02-14T05:46:29;32.83;;;17.58;;
22320;SDS011;11328;53.928;18.522;2024-02-14T05:48:56;30.98;;;17.40;;
22320;SDS011;11328;53.928;18.522;2024-02-14T05:51:24;35.50;;;17.88;;
22320;SDS011;11328;53.928;18.522;2024-02-14T05:53:51;30.10;;;17.45;;
22320;SDS011;11328;53.928;18.522;2024-02-14T05:56:18;33.25;;;17.90;;
22320;SDS011;11328;53.928;18.522;2024-02-14T05:58:46;31.27;;;16.88;;
22320;SDS011;11328;53.928;18.522;2024-02-14T06:01:13;31.80;;;17.60;;
22320;SDS011;11328;53.928;18.522;2024-02-14T06:03:42;33.60;;;16.77;;
22320;SDS011;11328;53.928;18.522;2024-02-14T06:06:09;29.73;;;16.48;;
22320;SDS011;11328;53.928;18.522;2024-02-14T06:08:37;32.25;;;16.45;;
22320;SDS011;11328;53.928;18.522;2024-02-14T06:11:04;33.20;;;16.90;;
22320;SDS011;11328;53.928;18.522;2024-02-14T06:13:31;27.35;;;16.60;;
22320;SDS011;11328;53.928;18.522;2024-02-14T06:16:00;31.65;;;17.17;;
22320;SDS011;11328;53.928;18.522;2024-02-14T06:18:27;34.33;;;16.25;;
22320;SDS011;11328;53.928;18.522;2024-02-14T06:20:54;29.52;;;16.13;;
22320;SDS011;11328;53.928;18.522;2024-02-14T06:23:21;33.50;;;17.85;;
22320;SDS011;11328;53.928;18.522;2024-02-14T06:25:48;28.08;;;16.88;;
22320;SDS011;11328;53.928;18.522;2024-02-14T06:28:15;35.03;;;16.70;;
22320;SDS011;11328;53.928;18.522;2024-02-14T06:30:42;29.02;;;16.95;;
22320;SDS011;11328;53.928;18.522;2024-02-14T06:33:09;32.00;;;17.38;;
22320;SDS011;11328;53.928;18.522;2024-02-14T06:35:37;32.75;;;17.05;;
22320;SDS011;11328;53.928;18.522;2024-02-14T06:38:04;34.20;;;16.85;;
22320;SDS011;11328;53.928;18.522;2024-02-14T06:40:32;36.58;;;16.50;;
22320;SDS011;11328;53.928;18.522;2024-02-14T06:43:00;32.33;;;16.55;;
22320;SDS011;11328;53.928;18.522;2024-02-14T06:45:27;30.35;;;16.42;;
22320;SDS011;11328;53.928;18.522;2024-02-14T06:47:55;31.98;;;17.55;;
22320;SDS011;11328;53.928;18.522;2024-02-14T06:50:22;26.38;;;16.58;;
22320;SDS011;11328;53.928;18.522;2024-02-14T06:52:52;30.75;;;16.50;;
22320;SDS011;11328;53.928;18.522;2024-02-14T06:55:19;33.58;;;17.13;;
22320;SDS011;11328;53.928;18.522;2024-02-14T06:57:46;35.38;;;17.60;;
22320;SDS011;11328;53.928;18.522;2024-02-14T07:00:13;33.83;;;16.95;;
22320;SDS011;11328;53.928;18.522;2024-02-14T07:02:41;28.45;;;17.20;;
22320;SDS011;11328;53.928;18.522;2024-02-14T07:05:09;28.02;;;16.85;;
22320;SDS011;11328;53.928;18.522;2024-02-14T07:07:39;31.63;;;16.67;;
22320;SDS011;11328;53.928;18.522;2024-02-14T07:10:07;34.45;;;17.15;;
22320;SDS011;11328;53.928;18.522;2024-02-14T07:12:34;31.20;;;17.10;;
22320;SDS011;11328;53.928;18.522;2024-02-14T07:15:05;29.40;;;17.42;;
22320;SDS011;11328;53.928;18.522;2024-02-14T07:17:32;28.42;;;17.33;;
22320;SDS011;11328;53.928;18.522;2024-02-14T07:20:01;29.30;;;16.95;;
22320;SDS011;11328;53.928;18.522;2024-02-14T07:22:29;33.78;;;17.70;;
22320;SDS011;11328;53.928;18.522;2024-02-14T07:24:59;32.85;;;17.25;;
22320;SDS011;11328;53.928;18.522;2024-02-14T07:27:26;36.05;;;18.52;;
22320;SDS011;11328;53.928;18.522;2024-02-14T07:29:53;36.42;;;18.40;;
22320;SDS011;11328;53.928;18.522;2024-02-14T07:32:21;31.88;;;17.75;;
22320;SDS011;11328;53.928;18.522;2024-02-14T07:34:48;34.17;;;18.52;;
22320;SDS011;11328;53.928;18.522;2024-02-14T07:37:15;36.47;;;20.25;;
22320;SDS011;11328;53.928;18.522;2024-02-14T07:39:46;36.85;;;19.25;;
22320;SDS011;11328;53.928;18.522;2024-02-14T07:42:14;33.05;;;18.10;;
22320;SDS011;11328;53.928;18.522;2024-02-14T07:44:41;33.15;;;18.83;;
22320;SDS011;11328;53.928;18.522;2024-02-14T07:47:09;33.60;;;18.77;;
22320;SDS011;11328;53.928;18.522;2024-02-14T07:49:36;34.80;;;18.42;;
22320;SDS011;11328;53.928;18.522;2024-02-14T07:52:03;43.30;;;19.75;;
22320;SDS011;11328;53.928;18.522;2024-02-14T07:54:31;31.42;;;17.75;;
22320;SDS011;11328;53.928;18.522;2024-02-14T07:56:58;34.92;;;18.77;;
22320;SDS011;11328;53.928;18.522;2024-02-14T07:59:26;28.27;;;17.55;;
22320;SDS011;11328;53.928;18.522;2024-02-14T08:01:57;38.55;;;21.15;;
22320;SDS011;11328;53.928;18.522;2024-02-14T08:04:25;31.60;;;19.30;;
22320;SDS011;11328;53.928;18.522;2024-02-14T08:06:52;32.58;;;18.45;;
22320;SDS011;11328;53.928;18.522;2024-02-14T08:09:21;29.00;;;17.77;;
22320;SDS011;11328;53.928;18.522;2024-02-14T08:11:48;31.30;;;17.15;;
22320;SDS011;11328;53.928;18.522;2024-02-14T08:14:16;30.67;;;17.70;;
22320;SDS011;11328;53.928;18.522;2024-02-14T08:16:43;28.38;;;16.65;;
22320;SDS011;11328;53.928;18.522;2024-02-14T08:19:10;31.42;;;17.25;;
22320;SDS011;11328;53.928;18.522;2024-02-14T08:21:37;28.58;;;17.52;;
22320;SDS011;11328;53.928;18.522;2024-02-14T08:24:04;29.40;;;16.85;;
22320;SDS011;11328;53.928;18.522;2024-02-14T08:26:32;27.98;;;17.08;;
22320;SDS011;11328;53.928;18.522;2024-02-14T08:28:59;28.02;;;17.02;;
22320;SDS011;11328;53.928;18.522;2024-02-14T08:31:26;31.55;;;17.17;;
22320;SDS011;11328;53.928;18.522;2024-02-14T08:33:54;29.45;;;16.27;;
22320;SDS011;11328;53.928;18.522;2024-02-14T08:36:21;28.00;;;17.08;;
22320;SDS011;11328;53.928;18.522;2024-02-14T08:38:49;32.33;;;17.80;;
22320;SDS011;11328;53.928;18.522;2024-02-14T08:41:16;28.80;;;16.42;;
22320;SDS011;11328;53.928;18.522;2024-02-14T08:43:44;32.45;;;16.42;;
22320;SDS011;11328;53.928;18.522;2024-02-14T08:46:13;27.90;;;16.60;;
22320;SDS011;11328;53.928;18.522;2024-02-14T08:48:41;26.55;;;15.50;;
22320;SDS011;11328;53.928;18.522;2024-02-14T08:51:15;27.48;;;15.90;;
22320;SDS011;11328;53.928;18.522;2024-02-14T08:53:43;27.60;;;16.25;;
22320;SDS011;11328;53.928;18.522;2024-02-14T08:56:12;28.75;;;15.90;;
22320;SDS011;11328;53.928;18.522;2024-02-14T08:58:40;25.33;;;16.02;;
22320;SDS011;11328;53.928;18.522;2024-02-14T09:01:07;26.70;;;16.77;;
22320;SDS011;11328;53.928;18.522;2024-02-14T09:03:41;25.48;;;16.30;;
22320;SDS011;11328;53.928;18.522;2024-02-14T09:06:15;24.77;;;15.20;;
22320;SDS011;11328;53.928;18.522;2024-02-14T09:08:44;23.90;;;15.63;;
22320;SDS011;11328;53.928;18.522;2024-02-14T09:11:12;26.63;;;15.90;;
22320;SDS011;11328;53.928;18.522;2024-02-14T09:13:40;25.80;;;15.00;;
22320;SDS011;11328;53.928;18.522;2024-02-14T09:16:07;28.50;;;15.88;;
22320;SDS011;11328;53.928;18.522;2024-02-14T09:18:36;25.83;;;15.52;;
22320;SDS011;11328;53.928;18.522;2024-02-14T09:21:04;25.80;;;14.98;;
22320;SDS011;11328;53.928;18.522;2024-02-14T09:23:32;25.80;;;14.63;;
22320;SDS011;11328;53.928;18.522;2024-02-14T09:26:00;23.27;;;14.25;;
22320;SDS011;11328;53.928;18.522;2024-02-14T09:28:28;24.23;;;14.30;;
22320;SDS011;11328;53.928;18.522;2024-02-14T09:30:56;21.95;;;13.68;;
22320;SDS011;11328;53.928;18.522;2024-02-14T09:33:23;22.33;;;13.20;;
22320;SDS011;11328;53.928;18.522;2024-02-14T09:35:51;20.75;;;13.00;;
22320;SDS011;11328;53.928;18.522;2024-02-14T09:38:19;22.95;;;13.50;;
22320;SDS011;11328;53.928;18.522;2024-02-14T09:40:46;24.25;;;15.13;;
22320;SDS011;11328;53.928;18.522;2024-02-14T09:43:21;22.90;;;14.02;;
22320;SDS011;11328;53.928;18.522;2024-02-14T09:46:04;21.15;;;13.88;;
22320;SDS011;11328;53.928;18.522;2024-02-14T09:48:33;22.92;;;13.38;;
22320;SDS011;11328;53.928;18.522;2024-02-14T09:51:04;20.00;;;12.68;;
22320;SDS011;11328;53.928;18.522;2024-02-14T09:53:33;20.02;;;12.40;;
22320;SDS011;11328;53.928;18.522;2024-02-14T09:56:04;22.92;;;12.75;;
22320;SDS011;11328;53.928;18.522;2024-02-14T09:58:32;22.02;;;12.73;;
22320;SDS011;11328;53.928;18.522;2024-02-14T10:01:02;21.27;;;12.80;;
22320;SDS011;11328;53.928;18.522;2024-02-14T10:03:31;22.83;;;12.75;;
22320;SDS011;11328;53.928;18.522;2024-02-14T10:05:59;20.25;;;13.02;;
22320;SDS011;11328;53.928;18.522;2024-02-14T10:08:26;20.25;;;12.38;;
22320;SDS011;11328;53.928;18.522;2024-02-14T10:10:56;24.67;;;12.80;;
22320;SDS011;11328;53.928;18.522;2024-02-14T10:13:27;20.63;;;12.98;;
22320;SDS011;11328;53.928;18.522;2024-02-14T10:15:55;22.17;;;13.00;;
22320;SDS011;11328;53.928;18.522;2024-02-14T10:18:23;23.02;;;13.50;;
22320;SDS011;11328;53.928;18.522;2024-02-14T10:20:57;22.35;;;12.73;;
22320;SDS011;11328;53.928;18.522;2024-02-14T10:25:54;18.65;;;11.98;;
22320;SDS011;11328;53.928;18.522;2024-02-14T10:28:22;18.58;;;11.43;;
22320;SDS011;11328;53.928;18.522;2024-02-14T10:31:01;20.52;;;11.65;;
22320;SDS011;11328;53.928;18.522;2024-02-14T10:33:31;19.40;;;11.95;;
22320;SDS011;11328;53.928;18.522;2024-02-14T10:35:58;23.38;;;12.43;;
22320;SDS011;11328;53.928;18.522;2024-02-14T10:38:30;24.15;;;12.50;;
22320;SDS011;11328;53.928;18.522;2024-02-14T10:41:01;23.75;;;12.07;;
22320;SDS011;11328;53.928;18.522;2024-02-14T10:43:30;21.90;;;11.90;;
22320;SDS011;11328;53.928;18.522;2024-02-14T10:45:58;20.35;;;12.05;;
22320;SDS011;11328;53.928;18.522;2024-02-14T10:48:34;19.50;;;11.20;;
22320;SDS011;11328;53.928;18.522;2024-02-14T10:51:05;18.20;;;10.93;;
22320;SDS011;11328;53.928;18.522;2024-02-14T10:53:35;20.13;;;10.98;;
22320;SDS011;11328;53.928;18.522;2024-02-14T10:56:09;20.95;;;12.30;;
22320;SDS011;11328;53.928;18.522;2024-02-14T10:58:36;21.38;;;13.05;;
22320;SDS011;11328;53.928;18.522;2024-02-14T11:01:03;17.38;;;10.82;;
22320;SDS011;11328;53.928;18.522;2024-02-14T11:03:33;19.38;;;11.02;;
22320;SDS011;11328;53.928;18.522;2024-02-14T11:06:02;18.25;;;10.23;;
22320;SDS011;11328;53.928;18.522;2024-02-14T11:08:31;17.15;;;10.10;;
22320;SDS011;11328;53.928;18.522;2024-02-14T11:10:59;16.50;;;9.70;;
22320;SDS011;11328;53.928;18.522;2024-02-14T11:13:31;19.73;;;10.75;;
22320;SDS011;11328;53.928;18.522;2024-02-14T11:16:02;18.85;;;10.10;;
22320;SDS011;11328;53.928;18.522;2024-02-14T11:18:31;18.48;;;9.60;;
22320;SDS011;11328;53.928;18.522;2024-02-14T11:21:02;17.70;;;9.88;;
22320;SDS011;11328;53.928;18.522;2024-02-14T11:23:31;15.45;;;9.52;;
22320;SDS011;11328;53.928;18.522;2024-02-14T11:25:59;16.67;;;9.57;;
22320;SDS011;11328;53.928;18.522;2024-02-14T11:28:29;18.33;;;10.55;;
22320;SDS011;11328;53.928;18.522;2024-02-14T11:31:02;16.73;;;10.13;;
22320;SDS011;11328;53.928;18.522;2024-02-14T11:33:31;16.77;;;9.65;;
22320;SDS011;11328;53.928;18.522;2024-02-14T11:35:59;19.52;;;10.20;;
22320;SDS011;11328;53.928;18.522;2024-02-14T11:38:39;17.35;;;9.80;;
22320;SDS011;11328;53.928;18.522;2024-02-14T11:41:07;17.55;;;9.63;;
22320;SDS011;11328;53.928;18.522;2024-02-14T11:43:37;17.73;;;10.00;;
22320;SDS011;11328;53.928;18.522;2024-02-14T11:46:05;17.25;;;10.45;;
22320;SDS011;11328;53.928;18.522;2024-02-14T11:48:33;20.25;;;10.75;;
22320;SDS011;11328;53.928;18.522;2024-02-14T11:51:01;17.55;;;10.27;;
22320;SDS011;11328;53.928;18.522;2024-02-14T11:53:34;17.13;;;10.13;;
22320;SDS011;11328;53.928;18.522;2024-02-14T11:56:02;19.13;;;11.15;;
22320;SDS011;11328;53.928;18.522;2024-02-14T11:58:32;19.02;;;11.15;;
22320;SDS011;11328;53.928;18.522;2024-02-14T12:00:59;19.90;;;10.07;;
22320;SDS011;11328;53.928;18.522;2024-02-14T12:03:32;18.30;;;10.90;;
22320;SDS011;11328;53.928;18.522;2024-02-14T12:06:01;18.67;;;9.90;;
22320;SDS011;11328;53.928;18.522;2024-02-14T12:08:29;15.35;;;9.65;;
22320;SDS011;11328;53.928;18.522;2024-02-14T12:10:58;15.63;;;9.43;;
22320;SDS011;11328;53.928;18.522;2024-02-14T12:13:25;17.17;;;9.70;;
22320;SDS011;11328;53.928;18.522;2024-02-14T12:15:52;18.85;;;10.10;;
22320;SDS011;11328;53.928;18.522;2024-02-14T12:18:20;20.60;;;11.38;;
22320;SDS011;11328;53.928;18.522;2024-02-14T12:20:48;20.88;;;11.65;;
22320;SDS011;11328;53.928;18.522;2024-02-14T12:23:21;18.08;;;9.88;;
22320;SDS011;11328;53.928;18.522;2024-02-14T12:25:50;24.92;;;12.25;;
22320;SDS011;11328;53.928;18.522;2024-02-14T12:28:17;16.98;;;9.93;;
22320;SDS011;11328;53.928;18.522;2024-02-14T12:30:46;17.67;;;10.82;;
22320;SDS011;11328;53.928;18.522;2024-02-14T12:33:24;20.75;;;11.25;;
22320;SDS011;11328;53.928;18.522;2024-02-14T12:35:54;21.90;;;11.68;;
22320;SDS011;11328;53.928;18.522;2024-02-14T12:38:25;19.00;;;11.35;;
22320;SDS011;11328;53.928;18.522;2024-02-14T12:40:53;18.52;;;10.55;;
22320;SDS011;11328;53.928;18.522;2024-02-14T12:43:22;17.38;;;10.38;;
22320;SDS011;11328;53.928;18.522;2024-02-14T12:45:50;16.70;;;9.48;;
22320;SDS011;11328;53.928;18.522;2024-02-14T12:48:23;18.00;;;10.45;;
22320;SDS011;11328;53.928;18.522;2024-02-14T12:50:54;15.38;;;9.93;;
22320;SDS011;11328;53.928;18.522;2024-02-14T12:53:23;17.13;;;9.10;;
22320;SDS011;11328;53.928;18.522;2024-02-14T12:55:50;17.45;;;9.45;;
22320;SDS011;11328;53.928;18.522;2024-02-14T12:58:19;18.75;;;10.70;;
22320;SDS011;11328;53.928;18.522;2024-02-14T13:00:48;23.02;;;12.85;;
22320;SDS011;11328;53.928;18.522;2024-02-14T13:03:15;16.65;;;9.02;;
22320;SDS011;11328;53.928;18.522;2024-02-14T13:05:44;15.52;;;8.88;;
22320;SDS011;11328;53.928;18.522;2024-02-14T13:08:11;17.85;;;9.52;;
22320;SDS011;11328;53.928;18.522;2024-02-14T13:10:38;16.48;;;8.82;;
22320;SDS011;11328;53.928;18.522;2024-02-14T13:13:06;17.90;;;9.85;;
22320;SDS011;11328;53.928;18.522;2024-02-14T13:15:34;20.67;;;12.10;;
22320;SDS011;11328;53.928;18.522;2024-02-14T13:18:04;22.20;;;12.75;;
22320;SDS011;11328;53.928;18.522;2024-02-14T13:20:32;28.70;;;17.60;;
22320;SDS011;11328;53.928;18.522;2024-02-14T13:22:59;27.27;;;15.30;;
22320;SDS011;11328;53.928;18.522;2024-02-14T13:25:28;26.35;;;13.80;;
22320;SDS011;11328;53.928;18.522;2024-02-14T13:27:55;29.17;;;15.15;;
22320;SDS011;11328;53.928;18.522;2024-02-14T13:30:25;24.95;;;15.65;;
22320;SDS011;11328;53.928;18.522;2024-02-14T13:32:54;27.83;;;15.90;;
22320;SDS011;11328;53.928;18.522;2024-02-14T13:35:22;26.88;;;16.73;;
22320;SDS011;11328;53.928;18.522;2024-02-14T13:37:49;27.95;;;14.75;;
22320;SDS011;11328;53.928;18.522;2024-02-14T13:40:16;32.00;;;16.67;;
22320;SDS011;11328;53.928;18.522;2024-02-14T13:42:44;31.17;;;16.58;;
22320;SDS011;11328;53.928;18.522;2024-02-14T13:45:11;31.95;;;15.95;;
22320;SDS011;11328;53.928;18.522;2024-02-14T13:47:38;19.33;;;10.73;;
22320;SDS011;11328;53.928;18.522;2024-02-14T13:50:07;19.08;;;11.25;;
22320;SDS011;11328;53.928;18.522;2024-02-14T13:52:36;17.98;;;11.00;;
22320;SDS011;11328;53.928;18.522;2024-02-14T13:55:03;22.40;;;11.15;;
22320;SDS011;11328;53.928;18.522;2024-02-14T13:57:36;19.10;;;11.10;;
22320;SDS011;11328;53.928;18.522;2024-02-14T14:00:06;22.50;;;10.57;;
22320;SDS011;11328;53.928;18.522;2024-02-14T14:02:38;19.00;;;10.57;;
22320;SDS011;11328;53.928;18.522;2024-02-14T14:05:09;21.77;;;12.23;;
22320;SDS011;11328;53.928;18.522;2024-02-14T14:07:38;22.40;;;10.32;;
22320;SDS011;11328;53.928;18.522;2024-02-14T14:10:23;24.50;;;13.75;;
22320;SDS011;11328;53.928;18.522;2024-02-14T14:12:54;21.83;;;12.48;;
22320;SDS011;11328;53.928;18.522;2024-02-14T14:15:22;19.27;;;11.32;;
22320;SDS011;11328;53.928;18.522;2024-02-14T14:17:50;18.83;;;11.98;;